createdAt,value
2022-10-23T00:00:33.360Z,59.50
2022-10-23T00:04:09.495Z,58.20
2022-10-23T00:07:11.978Z,57.40
2022-10-23T00:10:13.919Z,60.40
2022-10-23T00:13:15.649Z,63.60
2022-10-23T00:16:17.447Z,64.40
2022-10-23T00:19:19.460Z,59.10
2022-10-23T00:22:21.193Z,62.20
2022-10-23T00:25:23.136Z,66.40
2022-10-23T00:28:25.271Z,66.40
2022-10-23T00:31:26.983Z,62.30
2022-10-23T00:34:28.758Z,64.00
2022-10-23T00:37:30.644Z,64.50
2022-10-23T00:40:32.401Z,63.60
2022-10-23T00:43:35.228Z,61.60
2022-10-23T00:46:38.477Z,57.10
2022-10-23T00:49:42.835Z,62.60
2022-10-23T00:52:51.130Z,60.80
2022-10-23T00:55:54.261Z,60.50
2022-10-23T00:58:56.046Z,62.90
2022-10-23T01:01:58.959Z,63.00
2022-10-23T01:05:00.974Z,57.60
2022-10-23T01:08:08.064Z,59.30
2022-10-23T01:11:12.775Z,57.90
2022-10-23T01:14:23.497Z,63.30
2022-10-23T01:17:34.479Z,57.10
2022-10-23T01:20:45.675Z,60.30
2022-10-23T01:24:02.932Z,55.50
2022-10-23T01:27:21.024Z,57.70
2022-10-23T01:30:22.760Z,56.20
2022-10-23T01:33:27.986Z,56.50
2022-10-23T01:36:30.448Z,53.10
2022-10-23T01:39:39.061Z,51.40
2022-10-23T01:42:46.683Z,52.20
2022-10-23T01:45:51.792Z,50.90
2022-10-23T01:48:55.595Z,47.90
2022-10-23T01:52:00.620Z,45.50
2022-10-23T01:55:02.479Z,47.60
2022-10-23T01:58:05.082Z,48.90
2022-10-23T02:01:08.411Z,46.40
2022-10-23T02:04:13.059Z,46.30
2022-10-23T02:07:14.875Z,50.10
2022-10-23T02:10:17.933Z,51.50
2022-10-23T02:13:26.538Z,47.00
2022-10-23T02:16:42.482Z,48.70
2022-10-23T02:19:50.147Z,44.80
2022-10-23T02:23:00.751Z,48.10
2022-10-23T02:26:15.179Z,48.00
2022-10-23T02:29:23.505Z,49.20
2022-10-23T02:32:27.631Z,53.30
2022-10-23T02:35:29.437Z,48.40
2022-10-23T02:38:37.419Z,48.60
2022-10-23T02:41:42.216Z,50.90
2022-10-23T02:44:43.865Z,53.00
2022-10-23T02:47:53.058Z,48.70
2022-10-23T02:51:04.396Z,50.50
2022-10-23T02:54:12.215Z,47.70
2022-10-23T02:57:31.544Z,47.10
2022-10-23T03:00:34.248Z,45.00
2022-10-23T03:03:40.249Z,45.30
2022-10-23T03:06:42.051Z,48.50
2022-10-23T03:09:43.899Z,45.90
2022-10-23T03:12:47.168Z,45.70
2022-10-23T03:15:48.981Z,44.80
2022-10-23T03:18:50.779Z,41.90
2022-10-23T03:21:52.451Z,41.70
2022-10-23T03:24:54.184Z,44.30
2022-10-23T03:27:56.122Z,42.00
2022-10-23T03:30:57.950Z,48.70
2022-10-23T03:33:59.830Z,42.60
2022-10-23T03:37:01.601Z,42.60
2022-10-23T03:40:04.622Z,44.70
2022-10-23T03:43:06.498Z,42.80
2022-10-23T03:46:12.540Z,43.70
2022-10-23T03:49:14.451Z,43.30
2022-10-23T03:52:16.190Z,42.40
2022-10-23T03:55:18.093Z,46.60
2022-10-23T03:58:19.954Z,43.40
2022-10-23T04:01:21.869Z,41.30
2022-10-23T04:04:26.907Z,41.50
2022-10-23T04:07:28.671Z,40.20
2022-10-23T04:10:30.593Z,42.70
2022-10-23T04:13:32.349Z,44.30
2022-10-23T04:16:34.127Z,43.60
2022-10-23T04:19:35.831Z,42.00
2022-10-23T04:22:37.630Z,42.70
2022-10-23T04:25:39.360Z,45.50
2022-10-23T04:28:41.244Z,47.40
2022-10-23T04:31:43.094Z,46.50
2022-10-23T04:34:45.090Z,48.40
2022-10-23T04:37:47.225Z,46.90
2022-10-23T04:40:49.082Z,45.90
2022-10-23T04:43:50.924Z,47.50
2022-10-23T04:46:52.675Z,50.10
2022-10-23T04:49:54.327Z,53.10
2022-10-23T04:52:57.034Z,51.00
2022-10-23T04:55:59.594Z,52.20
2022-10-23T04:59:02.509Z,50.80
2022-10-23T05:02:04.393Z,53.20
2022-10-23T05:05:08.424Z,49.40
2022-10-23T05:08:13.201Z,46.60
2022-10-23T05:11:17.705Z,46.20
2022-10-23T05:14:22.685Z,50.30
2022-10-23T05:17:35.844Z,47.20
2022-10-23T05:20:38.031Z,46.90
2022-10-23T05:23:41.535Z,49.00
2022-10-23T05:26:43.452Z,51.00
2022-10-23T05:29:45.261Z,50.30
2022-10-23T05:32:47.200Z,43.70
2022-10-23T05:35:48.911Z,47.30
2022-10-23T05:38:51.195Z,46.00
2022-10-23T05:41:53.065Z,47.90
2022-10-23T05:44:54.835Z,48.20
2022-10-23T05:48:05.755Z,50.90
2022-10-23T05:51:23.488Z,45.70
2022-10-23T05:54:25.240Z,43.20
2022-10-23T05:57:26.978Z,43.00
2022-10-23T06:00:29.231Z,40.90
2022-10-23T06:03:30.938Z,40.60
2022-10-23T06:06:32.821Z,41.80
2022-10-23T06:09:34.527Z,37.90
2022-10-23T06:12:36.435Z,38.10
2022-10-23T06:15:38.467Z,36.80
2022-10-23T06:18:40.543Z,42.10
2022-10-23T06:21:42.572Z,41.20
2022-10-23T06:24:44.338Z,40.70
2022-10-23T06:27:46.133Z,39.80
2022-10-23T06:30:48.085Z,39.30
2022-10-23T06:33:49.781Z,54.30
2022-10-23T06:36:51.490Z,41.20
2022-10-23T06:39:53.479Z,41.60
2022-10-23T06:42:56.333Z,37.00
2022-10-23T06:46:01.876Z,39.20
2022-10-23T06:49:04.075Z,39.90
2022-10-23T06:52:11.045Z,36.00
2022-10-23T06:55:20.535Z,39.40
2022-10-23T06:58:22.307Z,39.50
2022-10-23T07:01:24.131Z,36.70
2022-10-23T07:04:26.198Z,39.60
2022-10-23T07:07:30.540Z,38.90
2022-10-23T07:10:32.387Z,41.00
2022-10-23T07:13:36.183Z,39.60
2022-10-23T07:16:37.937Z,37.60
2022-10-23T07:19:39.745Z,35.70
2022-10-23T07:22:41.779Z,38.20
2022-10-23T07:25:43.863Z,38.50
2022-10-23T07:28:47.279Z,39.40
2022-10-23T07:31:49.070Z,43.90
2022-10-23T07:34:50.945Z,46.10
2022-10-23T07:37:52.613Z,44.50
2022-10-23T07:40:57.856Z,46.00
2022-10-23T07:43:59.644Z,43.20
2022-10-23T07:47:01.431Z,40.80
2022-10-23T07:50:03.407Z,38.00
2022-10-23T07:53:05.326Z,36.40
2022-10-23T07:56:21.171Z,33.90
2022-10-23T07:59:22.932Z,31.70
2022-10-23T08:02:24.641Z,30.10
2022-10-23T08:05:26.472Z,26.40
2022-10-23T08:08:28.352Z,27.10
2022-10-23T08:11:35.360Z,27.80
2022-10-23T08:14:37.198Z,27.60
2022-10-23T08:17:39.399Z,28.50
2022-10-23T08:20:42.437Z,28.20
2022-10-23T08:23:44.851Z,29.10
2022-10-23T08:26:46.605Z,28.40
2022-10-23T08:29:48.386Z,27.50
2022-10-23T08:32:50.118Z,25.30
2022-10-23T08:35:52.001Z,28.00
2022-10-23T08:38:55.466Z,24.20
2022-10-23T08:41:57.381Z,22.80
2022-10-23T08:45:08.035Z,23.90
2022-10-23T08:48:31.104Z,25.40
2022-10-23T08:51:43.962Z,22.60
2022-10-23T08:55:03.309Z,21.70
2022-10-23T08:58:16.260Z,23.70
2022-10-23T09:01:42.920Z,21.80
2022-10-23T09:04:47.013Z,20.90
2022-10-23T09:07:51.441Z,19.70
2022-10-23T09:11:12.981Z,19.00
2022-10-23T09:14:36.467Z,22.40
2022-10-23T09:17:41.376Z,21.10
2022-10-23T09:20:46.170Z,16.70
2022-10-23T09:23:47.941Z,14.50
2022-10-23T09:26:52.366Z,13.80
2022-10-23T09:29:56.066Z,14.90
2022-10-23T09:32:58.899Z,17.80
2022-10-23T09:36:03.734Z,15.60
2022-10-23T09:39:05.501Z,12.80
2022-10-23T09:42:36.528Z,17.70
2022-10-23T09:45:41.879Z,10.50
2022-10-23T09:48:43.683Z,10.00
2022-10-23T09:52:08.741Z,9.10
2022-10-23T09:55:36.950Z,11.10
2022-10-23T09:58:54.136Z,10.50
2022-10-23T10:01:58.822Z,13.20
2022-10-23T10:05:20.156Z,10.90
2022-10-23T10:08:32.808Z,8.20
2022-10-23T10:11:54.601Z,9.90
2022-10-23T10:15:02.516Z,9.80
2022-10-23T10:18:18.241Z,12.00
2022-10-23T10:21:32.530Z,8.20
2022-10-23T10:24:56.139Z,9.40
2022-10-23T10:28:12.975Z,13.10
2022-10-23T10:31:26.935Z,8.10
2022-10-23T10:34:43.767Z,17.00
2022-10-23T10:38:03.254Z,8.10
2022-10-23T10:41:40.816Z,9.30
2022-10-23T10:45:11.579Z,8.30
2022-10-23T10:48:35.986Z,14.10
2022-10-23T10:51:47.080Z,9.80
2022-10-23T10:55:04.074Z,10.50
2022-10-23T10:58:42.783Z,10.00
2022-10-23T11:02:00.978Z,11.70
2022-10-23T11:05:11.155Z,12.70
2022-10-23T11:11:27.186Z,9.90
2022-10-23T11:14:33.379Z,10.40
2022-10-23T11:17:40.160Z,7.40
2022-10-23T11:20:55.997Z,8.80
2022-10-23T11:24:14.813Z,8.70
2022-10-23T11:27:23.303Z,10.00
2022-10-23T11:30:40.353Z,7.40
2022-10-23T11:34:01.153Z,9.00
2022-10-23T11:37:05.015Z,12.60
2022-10-23T11:40:06.747Z,11.50
2022-10-23T11:43:09.346Z,7.70
2022-10-23T11:46:31.775Z,9.70
2022-10-23T11:49:33.588Z,12.50
2022-10-23T11:53:23.032Z,12.20
2022-10-23T11:56:17.020Z,10.50
2022-10-23T11:59:30.721Z,12.20
2022-10-23T12:02:39.787Z,9.80
2022-10-23T12:05:42.427Z,10.80
2022-10-23T12:08:44.456Z,11.10
2022-10-23T12:12:02.282Z,15.00
2022-10-23T12:15:16.109Z,13.90
2022-10-23T12:18:18.127Z,14.10
2022-10-23T12:21:22.899Z,14.00
2022-10-23T12:24:52.083Z,13.30
2022-10-23T12:28:02.635Z,14.90
2022-10-23T12:31:07.547Z,14.70
2022-10-23T12:34:33.464Z,13.60
2022-10-23T12:38:00.197Z,13.20
2022-10-23T12:41:21.292Z,13.60
2022-10-23T12:44:25.485Z,13.90
2022-10-23T12:47:27.562Z,15.00
2022-10-23T12:50:31.375Z,15.00
2022-10-23T12:53:33.239Z,14.50
2022-10-23T12:56:36.489Z,11.80
2022-10-23T12:59:39.280Z,13.30
2022-10-23T13:02:41.330Z,13.10
2022-10-23T13:05:43.550Z,11.90
2022-10-23T13:08:47.778Z,14.30
2022-10-23T13:11:51.184Z,14.80
2022-10-23T13:15:08.491Z,13.10
2022-10-23T13:18:14.256Z,13.50
2022-10-23T13:21:22.564Z,13.10
2022-10-23T13:24:27.223Z,14.80
2022-10-23T13:27:34.000Z,12.60
2022-10-23T13:30:39.150Z,14.60
2022-10-23T13:33:43.290Z,12.40
2022-10-23T13:36:58.124Z,18.20
2022-10-23T13:40:05.065Z,13.50
2022-10-23T13:43:14.749Z,16.40
2022-10-23T13:46:18.523Z,20.80
2022-10-23T13:49:20.838Z,17.60
2022-10-23T13:52:23.898Z,18.70
2022-10-23T13:55:26.299Z,16.90
2022-10-23T13:58:28.044Z,14.90
2022-10-23T14:01:33.820Z,16.10
2022-10-23T14:04:35.570Z,16.90
2022-10-23T14:07:37.419Z,19.70
2022-10-23T14:10:39.075Z,20.20
2022-10-23T14:13:41.299Z,16.70
2022-10-23T14:16:43.137Z,17.70
2022-10-23T14:19:45.801Z,17.40
2022-10-23T14:22:47.885Z,16.00
2022-10-23T14:25:49.846Z,19.10
2022-10-23T14:28:56.413Z,17.70
2022-10-23T14:31:59.453Z,18.00
2022-10-23T14:35:04.154Z,18.90
2022-10-23T14:38:06.044Z,28.90
2022-10-23T14:41:16.275Z,45.30
2022-10-23T14:44:18.002Z,50.10
2022-10-23T14:47:19.955Z,69.60
2022-10-23T14:50:21.958Z,23.70
2022-10-23T14:53:23.671Z,21.00
2022-10-23T14:56:25.717Z,21.70
2022-10-23T14:59:27.637Z,22.20
2022-10-23T15:02:29.407Z,21.50
2022-10-23T15:05:31.108Z,21.20
2022-10-23T15:08:33.183Z,24.30
2022-10-23T15:11:34.904Z,24.10
2022-10-23T15:14:36.705Z,21.60
2022-10-23T15:17:39.323Z,20.70
2022-10-23T15:20:41.060Z,20.50
2022-10-23T15:23:44.365Z,23.80
2022-10-23T15:26:46.647Z,21.90
2022-10-23T15:29:48.480Z,24.80
2022-10-23T15:32:50.217Z,22.90
2022-10-23T15:35:52.561Z,23.70
2022-10-23T15:38:54.288Z,25.90
2022-10-23T15:41:57.090Z,54.70
2022-10-23T15:44:58.851Z,96.50
2022-10-23T15:48:00.659Z,87.90
2022-10-23T15:51:02.447Z,30.30
2022-10-23T15:54:06.351Z,25.30
2022-10-23T15:57:08.095Z,23.30
2022-10-23T16:00:14.793Z,28.40
2022-10-23T16:03:17.801Z,23.10
2022-10-23T16:06:20.608Z,25.10
2022-10-23T16:09:22.527Z,25.50
2022-10-23T16:12:24.851Z,26.20
2022-10-23T16:15:26.744Z,26.10
2022-10-23T16:18:28.953Z,27.00
2022-10-23T16:21:33.289Z,24.60
2022-10-23T16:24:35.459Z,26.50
2022-10-23T16:27:37.249Z,31.30
2022-10-23T16:30:43.207Z,29.70
2022-10-23T16:33:45.052Z,24.70
2022-10-23T16:36:47.255Z,29.30
2022-10-23T16:39:48.910Z,26.40
2022-10-23T16:42:50.756Z,28.20
2022-10-23T16:46:10.735Z,25.30
2022-10-23T16:49:14.157Z,26.50
2022-10-23T16:52:15.841Z,29.30
2022-10-23T16:55:17.747Z,26.60
2022-10-23T16:58:19.419Z,54.50
2022-10-23T17:01:23.580Z,52.90
2022-10-23T17:04:25.446Z,43.30
2022-10-23T17:07:27.266Z,46.30
2022-10-23T17:10:29.059Z,44.30
2022-10-23T17:13:30.794Z,38.20
2022-10-23T17:16:37.454Z,27.10
2022-10-23T17:19:46.008Z,32.80
2022-10-23T17:22:48.598Z,28.60
2022-10-23T17:25:50.351Z,29.90
2022-10-23T17:28:52.634Z,34.80
2022-10-23T17:31:54.698Z,34.00
2022-10-23T17:34:56.394Z,35.50
2022-10-23T17:37:58.420Z,32.90
2022-10-23T17:41:00.184Z,32.10
2022-10-23T17:44:02.034Z,30.40
2022-10-23T17:47:03.784Z,27.70
2022-10-23T17:50:09.565Z,29.50
2022-10-23T17:53:11.354Z,30.30
2022-10-23T17:56:19.284Z,32.00
2022-10-23T17:59:21.066Z,31.70
2022-10-23T18:02:23.083Z,32.10
2022-10-23T18:05:24.912Z,29.80
2022-10-23T18:08:26.938Z,38.30
2022-10-23T18:11:33.723Z,44.30
2022-10-23T18:14:37.532Z,33.80
2022-10-23T18:17:39.620Z,46.80
2022-10-23T18:20:42.047Z,37.80
2022-10-23T18:23:44.635Z,34.90
2022-10-23T18:26:48.269Z,33.40
2022-10-23T18:29:51.096Z,31.20
2022-10-23T18:32:52.888Z,214.00
2022-10-23T18:35:54.592Z,199.40
2022-10-23T18:38:56.521Z,28.70
2022-10-23T18:41:58.889Z,30.00
2022-10-23T18:45:01.063Z,22.80
2022-10-23T18:48:03.489Z,32.50
2022-10-23T18:51:05.738Z,26.10
2022-10-23T18:54:10.692Z,40.90
2022-10-23T18:57:12.480Z,44.70
2022-10-23T19:00:14.591Z,40.10
2022-10-23T19:03:16.621Z,25.60
2022-10-23T19:06:19.108Z,36.70
2022-10-23T19:09:20.808Z,25.80
2022-10-23T19:12:23.281Z,29.80
2022-10-23T19:15:25.175Z,27.80
2022-10-23T19:18:26.940Z,28.30
2022-10-23T19:21:31.890Z,29.10
2022-10-23T19:24:39.458Z,31.30
2022-10-23T19:27:42.382Z,27.80
2022-10-23T19:30:44.087Z,31.50
2022-10-23T19:33:45.854Z,32.80
2022-10-23T19:36:48.563Z,66.80
2022-10-23T19:39:50.313Z,44.20
2022-10-23T19:42:54.288Z,64.50
2022-10-23T19:45:56.134Z,111.80
2022-10-23T19:48:57.893Z,36.80
2022-10-23T19:51:59.623Z,35.20
2022-10-23T19:55:03.403Z,51.70
2022-10-23T19:58:05.503Z,43.60
2022-10-23T20:01:12.515Z,49.90
2022-10-23T20:04:14.927Z,46.60
2022-10-23T20:07:17.073Z,37.80
2022-10-23T20:10:19.038Z,41.20
2022-10-23T20:13:21.343Z,41.70
2022-10-23T20:16:29.125Z,77.80
2022-10-23T20:19:30.832Z,104.00
2022-10-23T20:22:32.550Z,81.60
2022-10-23T20:25:34.236Z,44.90
2022-10-23T20:28:36.084Z,51.80
2022-10-23T20:31:39.531Z,46.70
2022-10-23T20:34:42.050Z,104.90
2022-10-23T20:37:43.864Z,94.80
2022-10-23T20:40:46.184Z,77.80
2022-10-23T20:43:48.565Z,107.70
2022-10-23T20:46:50.525Z,58.70
2022-10-23T20:49:52.419Z,60.50
2022-10-23T20:52:54.164Z,63.40
2022-10-23T20:55:56.011Z,105.50
2022-10-23T20:58:59.370Z,79.80
2022-10-23T21:02:01.199Z,63.30
2022-10-23T21:05:03.044Z,115.80
2022-10-23T21:08:05.020Z,97.10
2022-10-23T21:11:08.542Z,129.30
2022-10-23T21:14:10.278Z,80.40
2022-10-23T21:17:16.908Z,89.00
2022-10-23T21:20:18.622Z,88.20
2022-10-23T21:23:21.734Z,58.20
2022-10-23T21:26:24.246Z,92.80
2022-10-23T21:29:25.959Z,52.60
2022-10-23T21:32:27.694Z,87.80
2022-10-23T21:35:30.191Z,108.00
2022-10-23T21:38:32.162Z,92.90
2022-10-23T21:41:34.654Z,104.40
2022-10-23T21:44:36.520Z,141.00
2022-10-23T21:47:38.555Z,121.60
2022-10-23T21:50:40.389Z,75.50
2022-10-23T21:53:42.126Z,94.10
2022-10-23T21:56:45.599Z,61.00
2022-10-23T21:59:48.155Z,56.90
2022-10-23T22:02:50.029Z,59.50
2022-10-23T22:05:52.205Z,53.10
2022-10-23T22:08:55.727Z,52.40
2022-10-23T22:12:00.044Z,49.40
2022-10-23T22:15:02.099Z,43.50
2022-10-23T22:18:03.899Z,64.30
2022-10-23T22:21:09.332Z,39.40
2022-10-23T22:24:12.005Z,32.50
2022-10-23T22:27:13.723Z,70.00
2022-10-23T22:30:15.821Z,37.30
2022-10-23T22:33:17.484Z,60.80
2022-10-23T22:39:21.269Z,48.40
2022-10-23T22:42:23.081Z,34.20
2022-10-23T22:45:24.843Z,31.40
2022-10-23T22:48:27.774Z,30.30
2022-10-23T22:51:30.066Z,32.00
2022-10-23T22:54:32.312Z,64.10
2022-10-23T22:57:34.249Z,36.60
2022-10-23T23:00:42.742Z,41.10
2022-10-23T23:03:46.387Z,36.50
2022-10-23T23:07:10.048Z,33.80
2022-10-23T23:10:26.435Z,38.60
2022-10-23T23:13:29.223Z,42.90
2022-10-23T23:16:32.249Z,35.70
2022-10-23T23:19:34.625Z,38.20
2022-10-23T23:22:36.629Z,35.20
2022-10-23T23:25:50.199Z,36.10
2022-10-23T23:28:53.902Z,29.90
2022-10-23T23:31:55.894Z,36.00
2022-10-23T23:34:59.520Z,35.90
2022-10-23T23:38:01.468Z,31.40
2022-10-23T23:41:04.823Z,31.80
2022-10-23T23:44:08.509Z,30.20
2022-10-23T23:47:10.366Z,32.60
2022-10-23T23:50:12.553Z,32.30
2022-10-23T23:53:14.464Z,39.50
2022-10-23T23:56:16.709Z,40.90
2022-10-23T23:59:18.433Z,42.10
